Terminal Aerodrome Forecast
Issued by NWS Atlanta, GA

Home | Current Version | Previous Version | Text Only | Print | Product List | Glossary On
Versions: 1 2 3 4 5 6 7 8 9 10 11 12 13 14 15 16 17 18 19 20 21 22 23 24 25 26 27 28 29 30 31 32 33 34 35 36 37 38 39 40 41
000
FTAK31 PAJN 160300 AAB
TAFAHN
TAF AMD
PAHN 160315Z 1603/1624 10005KT 6SM -RA FEW005 OVC020
      TEMPO 1603/1606 2SM -RA BR SCT005 OVC015
     FM160600 10004KT 6SM BR VCSH SCT005 BKN010 OVC025
     FM161800 14006KT P6SM BKN050
      AMD LTD TO CLD VIS AND WIND=

USA.gov is the U.S. government's official web portal to all federal, state and local government web resources and services.